createdAt,value
2023-04-01T00:04:37.286Z,10.98
2023-04-01T00:09:39.835Z,11.90
2023-04-01T00:14:42.545Z,12.65
2023-04-01T00:19:45.027Z,12.50
2023-04-01T00:24:47.977Z,14.52
2023-04-01T00:29:50.437Z,12.48
2023-04-01T00:34:54.202Z,10.35
2023-04-01T00:39:58.051Z,16.05
2023-04-01T00:45:36.767Z,12.80
2023-04-01T00:50:42.246Z,11.38
2023-04-01T00:55:51.710Z,11.95
2023-04-01T01:00:56.801Z,9.07
2023-04-01T01:06:40.231Z,9.77
2023-04-01T01:12:07.424Z,11.07
2023-04-01T01:17:09.808Z,13.07
2023-04-01T01:22:21.208Z,9.38
2023-04-01T01:27:24.571Z,9.57
2023-04-01T01:32:48.449Z,11.55
2023-04-01T01:38:04.995Z,13.47
2023-04-01T01:43:15.646Z,10.77
2023-04-01T01:48:19.156Z,10.02
2023-04-01T01:53:21.827Z,11.18
2023-04-01T01:58:50.300Z,11.90
2023-04-01T02:03:57.106Z,11.00
2023-04-01T02:09:06.402Z,14.30
2023-04-01T02:14:15.450Z,11.30
2023-04-01T02:19:23.829Z,13.73
2023-04-01T02:24:30.487Z,11.20
2023-04-01T02:29:36.023Z,11.40
2023-04-01T02:34:44.196Z,9.57
2023-04-01T02:39:46.560Z,10.30
2023-04-01T02:44:49.119Z,12.88
2023-04-01T02:49:51.614Z,11.48
2023-04-01T02:54:54.475Z,9.23
2023-04-01T02:59:57.217Z,12.60
2023-04-01T03:04:59.772Z,10.98
2023-04-01T03:10:02.503Z,12.23
2023-04-01T03:15:10.752Z,10.15
2023-04-01T03:20:16.249Z,10.73
2023-04-01T03:25:19.562Z,11.25
2023-04-01T03:30:22.188Z,13.18
2023-04-01T03:35:27.020Z,11.05
2023-04-01T03:40:29.651Z,14.02
2023-04-01T03:45:32.416Z,12.57
2023-04-01T03:50:36.008Z,14.52
2023-04-01T03:55:38.791Z,11.32
2023-04-01T04:00:41.976Z,14.10
2023-04-01T04:05:49.977Z,12.80
2023-04-01T04:10:57.580Z,11.73
2023-04-01T04:16:04.924Z,13.48
2023-04-01T04:21:08.616Z,14.85
2023-04-01T04:26:14.105Z,14.30
2023-04-01T04:31:23.064Z,23.50
2023-04-01T04:36:27.180Z,10.60
2023-04-01T04:41:31.091Z,11.18
2023-04-01T04:46:33.801Z,13.40
2023-04-01T04:51:46.980Z,8.98
2023-04-01T04:56:54.060Z,10.23
2023-04-01T05:01:58.538Z,9.97
2023-04-01T05:07:01.280Z,8.52
2023-04-01T05:12:04.583Z,8.38
2023-04-01T05:17:27.060Z,9.88
2023-04-01T05:22:30.780Z,9.90
2023-04-01T05:27:33.780Z,8.70
2023-04-01T05:32:38.286Z,8.93
2023-04-01T05:37:40.995Z,7.20
2023-04-01T05:42:43.629Z,7.70
2023-04-01T05:47:47.465Z,8.40
2023-04-01T05:52:50.150Z,6.97
2023-04-01T05:57:53.618Z,10.07
2023-04-01T06:02:56.430Z,6.95
2023-04-01T06:08:15.160Z,9.82
2023-04-01T06:13:36.487Z,8.93
2023-04-01T06:18:54.177Z,12.03
2023-04-01T06:24:26.392Z,5.45
2023-04-01T06:29:42.327Z,7.50
2023-04-01T06:35:06.758Z,7.28
2023-04-01T06:40:46.723Z,8.60
2023-04-01T06:46:12.107Z,8.37
2023-04-01T06:51:57.227Z,7.50
2023-04-01T06:57:46.645Z,9.35
2023-04-01T07:03:05.461Z,5.63
2023-04-01T07:08:19.414Z,7.15
2023-04-01T07:13:28.544Z,7.03
2023-04-01T07:18:44.231Z,8.93
2023-04-01T07:23:48.775Z,7.03
2023-04-01T07:29:14.235Z,8.50
2023-04-01T07:34:56.170Z,6.88
2023-04-01T07:40:27.404Z,7.37
2023-04-01T07:45:59.077Z,5.47
2023-04-01T07:51:30.290Z,6.38
2023-04-01T07:56:42.866Z,7.37
2023-04-01T08:02:13.098Z,6.13
2023-04-01T08:07:25.376Z,6.67
2023-04-01T08:13:18.272Z,7.47
2023-04-01T08:19:17.028Z,6.68
2023-04-01T08:24:46.617Z,4.97
2023-04-01T08:30:03.135Z,8.10
2023-04-01T08:35:11.428Z,5.37
2023-04-01T08:40:51.957Z,5.63
2023-04-01T08:46:08.013Z,5.78
2023-04-01T08:51:19.835Z,5.83
2023-04-01T08:56:27.584Z,5.40
2023-04-01T09:01:57.269Z,7.88
2023-04-01T09:07:44.265Z,7.43
2023-04-01T09:13:08.963Z,6.78
2023-04-01T09:19:02.576Z,6.68
2023-04-01T09:24:05.509Z,4.37
2023-04-01T09:29:35.044Z,6.28
2023-04-01T09:34:56.155Z,6.18
2023-04-01T09:40:20.184Z,7.30
2023-04-01T09:45:55.898Z,8.57
2023-04-01T09:51:24.070Z,6.82
2023-04-01T09:56:50.294Z,5.50
2023-04-01T10:02:17.468Z,5.97
2023-04-01T10:07:42.578Z,6.27
2023-04-01T10:12:51.797Z,4.07
2023-04-01T10:18:15.081Z,4.57
2023-04-01T10:23:46.317Z,5.47
2023-04-01T10:29:04.082Z,4.97
2023-04-01T10:34:41.528Z,8.20
2023-04-01T10:39:53.591Z,5.18
2023-04-01T10:45:51.106Z,4.47
2023-04-01T10:51:12.678Z,5.50
2023-04-01T10:56:41.062Z,4.40
2023-04-01T11:02:51.303Z,4.20
2023-04-01T11:08:40.065Z,6.70
2023-04-01T11:14:19.180Z,6.90
2023-04-01T11:19:53.908Z,6.22
2023-04-01T11:25:26.485Z,5.67
2023-04-01T11:30:56.908Z,6.90
2023-04-01T11:36:41.670Z,10.95
2023-04-01T11:41:55.082Z,7.13
2023-04-01T11:47:34.973Z,5.15
2023-04-01T11:53:06.960Z,8.90
2023-04-01T11:58:47.258Z,5.70
2023-04-01T12:04:29.075Z,4.80
2023-04-01T12:09:59.731Z,6.65
2023-04-01T12:15:47.578Z,6.05
2023-04-01T12:21:19.897Z,6.73
2023-04-01T12:26:25.355Z,6.95
2023-04-01T12:31:58.324Z,6.55
2023-04-01T12:37:37.400Z,6.77
2023-04-01T12:43:18.533Z,6.88
2023-04-01T12:48:41.882Z,7.95
2023-04-01T12:54:09.350Z,6.20
2023-04-01T12:59:47.337Z,6.73
2023-04-01T13:05:14.796Z,7.50
2023-04-01T13:10:30.264Z,5.57
2023-04-01T13:15:49.960Z,4.90
2023-04-01T13:21:11.271Z,5.15
2023-04-01T13:26:23.978Z,8.13
2023-04-01T13:31:38.132Z,4.93
2023-04-01T13:36:58.006Z,6.20
2023-04-01T13:42:03.761Z,7.00
2023-04-01T13:47:25.297Z,5.63
2023-04-01T13:52:46.646Z,5.50
2023-04-01T13:58:14.982Z,6.97
2023-04-01T14:03:17.580Z,6.22
2023-04-01T14:08:45.306Z,6.20
2023-04-01T14:13:57.148Z,8.45
2023-04-01T14:19:09.989Z,9.25
2023-04-01T14:24:44.744Z,4.80
2023-04-01T14:30:09.234Z,6.97
2023-04-01T14:35:16.616Z,7.32
2023-04-01T14:40:40.121Z,6.60
2023-04-01T14:46:00.979Z,7.30
2023-04-01T14:51:17.573Z,5.35
2023-04-01T14:56:41.471Z,6.80
2023-04-01T15:02:20.951Z,5.73
2023-04-01T15:07:29.274Z,7.65
2023-04-01T15:13:13.507Z,6.63
2023-04-01T15:18:48.715Z,5.27
2023-04-01T15:29:30.231Z,6.43
2023-04-01T15:34:47.336Z,10.05
2023-04-01T15:39:56.071Z,9.95
2023-04-01T15:45:36.318Z,13.53
2023-04-01T15:50:55.836Z,14.88
2023-04-01T15:56:10.842Z,21.13
2023-04-01T16:01:31.809Z,17.33
2023-04-01T16:06:56.271Z,14.57
2023-04-01T16:12:23.420Z,13.27
2023-04-01T16:17:39.004Z,17.05
2023-04-01T16:22:46.773Z,11.17
2023-04-01T16:28:22.156Z,9.65
2023-04-01T16:33:33.383Z,10.05
2023-04-01T16:38:54.565Z,15.40
2023-04-01T16:44:22.239Z,22.27
2023-04-01T16:49:43.600Z,13.27
2023-04-01T16:55:10.028Z,17.40
2023-04-01T17:00:20.345Z,11.18
2023-04-01T17:05:52.577Z,18.97
2023-04-01T17:11:02.640Z,19.55
2023-04-01T17:16:36.326Z,14.57
2023-04-01T17:22:03.238Z,11.88
2023-04-01T17:27:18.255Z,15.23
2023-04-01T17:32:47.005Z,13.40
2023-04-01T17:38:19.084Z,19.92
2023-04-01T17:43:46.272Z,27.03
2023-04-01T17:49:22.394Z,28.10
2023-04-01T17:54:47.404Z,19.30
2023-04-01T17:59:59.087Z,16.83
2023-04-01T18:05:33.089Z,14.07
2023-04-01T18:10:58.781Z,13.37
2023-04-01T18:16:37.461Z,17.95
2023-04-01T18:22:11.453Z,14.27
2023-04-01T18:27:24.072Z,15.43
2023-04-01T18:32:49.767Z,14.45
2023-04-01T18:38:05.432Z,16.17
2023-04-01T18:43:39.724Z,18.45
2023-04-01T18:49:10.189Z,14.65
2023-04-01T18:54:15.259Z,10.57
2023-04-01T18:59:30.472Z,10.63
2023-04-01T19:04:59.321Z,10.53
2023-04-01T19:10:08.650Z,13.45
2023-04-01T19:15:28.928Z,19.42
2023-04-01T19:20:58.079Z,25.67
2023-04-01T19:26:05.306Z,20.00
2023-04-01T19:31:49.297Z,22.50
2023-04-01T19:37:06.866Z,27.65
2023-04-01T19:42:33.750Z,22.92
2023-04-01T19:47:51.884Z,23.50
2023-04-01T19:52:57.768Z,27.85
2023-04-01T19:58:32.568Z,26.43
2023-04-01T20:03:56.724Z,22.33
2023-04-01T20:09:19.599Z,22.05
2023-04-01T20:14:37.899Z,20.67
2023-04-01T20:19:52.499Z,24.42
2023-04-01T20:25:03.160Z,24.57
2023-04-01T20:30:40.522Z,33.92
2023-04-01T20:36:11.171Z,34.28
2023-04-01T20:41:27.929Z,38.38
2023-04-01T20:46:35.126Z,32.20
2023-04-01T20:51:44.863Z,31.50
2023-04-01T20:57:03.649Z,35.83
2023-04-01T21:02:18.672Z,26.38
2023-04-01T21:07:38.715Z,20.40
2023-04-01T21:12:57.782Z,21.30
2023-04-01T21:18:25.720Z,20.33
2023-04-01T21:23:30.940Z,23.25
2023-04-01T21:28:49.001Z,16.85
2023-04-01T21:34:19.361Z,17.10
2023-04-01T21:39:28.523Z,17.10
2023-04-01T21:45:01.869Z,15.03
2023-04-01T21:50:09.120Z,16.92
2023-04-01T21:55:28.805Z,19.48
2023-04-01T22:00:37.780Z,17.33
2023-04-01T22:06:11.557Z,12.85
2023-04-01T22:17:04.682Z,16.60
2023-04-01T22:22:17.424Z,15.55
2023-04-01T22:27:31.274Z,14.63
2023-04-01T22:32:46.722Z,14.95
2023-04-01T22:38:09.373Z,12.83
2023-04-01T22:43:16.691Z,16.90
2023-04-01T22:48:35.406Z,11.02
2023-04-01T22:53:46.973Z,10.95
2023-04-01T22:59:04.341Z,8.77
2023-04-01T23:04:07.720Z,10.70
2023-04-01T23:09:16.556Z,10.77
2023-04-01T23:14:21.851Z,11.13
2023-04-01T23:19:44.830Z,9.85
2023-04-01T23:25:12.163Z,9.77
2023-04-01T23:30:47.056Z,13.43
2023-04-01T23:36:11.866Z,10.52
2023-04-01T23:41:33.938Z,10.75
2023-04-01T23:46:40.131Z,9.80
2023-04-01T23:52:30.570Z,9.00
2023-04-01T23:57:38.082Z,10.57
